sensor_id;sensor_type;location;lat;lon;timestamp;P1;durP1;ratioP1;P2;durP2;ratioP2
76610;SDS011;65503;48.534;9.062;2022-12-10T00:01:08;35.83;;;12.63;;
76610;SDS011;65503;48.534;9.062;2022-12-10T00:06:13;43.03;;;15.02;;
76610;SDS011;65503;48.534;9.062;2022-12-10T00:08:42;29.63;;;10.55;;
76610;SDS011;65503;48.534;9.062;2022-12-10T00:11:09;56.08;;;18.05;;
76610;SDS011;65503;48.534;9.062;2022-12-10T00:13:37;29.25;;;10.82;;
76610;SDS011;65503;48.534;9.062;2022-12-10T00:16:05;49.45;;;16.73;;
76610;SDS011;65503;48.534;9.062;2022-12-10T00:18:34;54.88;;;15.95;;
76610;SDS011;65503;48.534;9.062;2022-12-10T00:21:02;37.28;;;12.65;;
76610;SDS011;65503;48.534;9.062;2022-12-10T00:26:02;54.42;;;20.73;;
76610;SDS011;65503;48.534;9.062;2022-12-10T00:28:32;68.38;;;21.92;;
76610;SDS011;65503;48.534;9.062;2022-12-10T00:31:06;76.95;;;26.75;;
76610;SDS011;65503;48.534;9.062;2022-12-10T00:33:37;60.55;;;19.20;;
76610;SDS011;65503;48.534;9.062;2022-12-10T00:36:06;42.80;;;15.63;;
76610;SDS011;65503;48.534;9.062;2022-12-10T00:38:34;64.93;;;22.15;;
76610;SDS011;65503;48.534;9.062;2022-12-10T00:41:02;90.10;;;27.33;;
76610;SDS011;65503;48.534;9.062;2022-12-10T00:43:29;53.17;;;15.85;;
76610;SDS011;65503;48.534;9.062;2022-12-10T00:45:56;46.15;;;15.95;;
76610;SDS011;65503;48.534;9.062;2022-12-10T00:48:23;35.90;;;12.57;;
76610;SDS011;65503;48.534;9.062;2022-12-10T00:53:24;61.33;;;22.10;;
76610;SDS011;65503;48.534;9.062;2022-12-10T00:55:51;53.47;;;16.95;;
76610;SDS011;65503;48.534;9.062;2022-12-10T00:58:18;62.10;;;20.90;;
76610;SDS011;65503;48.534;9.062;2022-12-10T01:00:45;56.92;;;18.23;;
76610;SDS011;65503;48.534;9.062;2022-12-10T01:03:12;94.13;;;27.42;;
76610;SDS011;65503;48.534;9.062;2022-12-10T01:05:39;77.32;;;24.55;;
76610;SDS011;65503;48.534;9.062;2022-12-10T01:08:05;58.75;;;19.88;;
76610;SDS011;65503;48.534;9.062;2022-12-10T01:10:32;58.90;;;19.23;;
76610;SDS011;65503;48.534;9.062;2022-12-10T01:12:59;40.17;;;15.23;;
76610;SDS011;65503;48.534;9.062;2022-12-10T01:15:26;53.30;;;19.20;;
76610;SDS011;65503;48.534;9.062;2022-12-10T01:17:52;34.97;;;11.85;;
76610;SDS011;65503;48.534;9.062;2022-12-10T01:20:19;32.78;;;11.68;;
76610;SDS011;65503;48.534;9.062;2022-12-10T01:22:46;38.20;;;12.45;;
76610;SDS011;65503;48.534;9.062;2022-12-10T01:25:12;48.40;;;16.42;;
76610;SDS011;65503;48.534;9.062;2022-12-10T01:27:39;36.47;;;12.70;;
76610;SDS011;65503;48.534;9.062;2022-12-10T01:30:06;33.72;;;11.85;;
76610;SDS011;65503;48.534;9.062;2022-12-10T01:32:34;28.70;;;11.60;;
76610;SDS011;65503;48.534;9.062;2022-12-10T01:35:00;39.35;;;14.57;;
76610;SDS011;65503;48.534;9.062;2022-12-10T01:37:26;28.13;;;10.98;;
76610;SDS011;65503;48.534;9.062;2022-12-10T01:39:53;34.83;;;11.95;;
76610;SDS011;65503;48.534;9.062;2022-12-10T01:42:19;39.10;;;13.25;;
76610;SDS011;65503;48.534;9.062;2022-12-10T01:47:12;64.47;;;19.67;;
76610;SDS011;65503;48.534;9.062;2022-12-10T01:49:40;80.20;;;23.88;;
76610;SDS011;65503;48.534;9.062;2022-12-10T01:52:08;61.88;;;19.27;;
76610;SDS011;65503;48.534;9.062;2022-12-10T01:54:38;52.97;;;14.80;;
76610;SDS011;65503;48.534;9.062;2022-12-10T01:59:45;48.45;;;16.50;;
76610;SDS011;65503;48.534;9.062;2022-12-10T02:05:26;58.22;;;18.40;;
76610;SDS011;65503;48.534;9.062;2022-12-10T02:16:12;38.00;;;14.35;;
76610;SDS011;65503;48.534;9.062;2022-12-10T02:19:06;47.42;;;18.13;;
76610;SDS011;65503;48.534;9.062;2022-12-10T02:21:48;48.28;;;17.10;;
76610;SDS011;65503;48.534;9.062;2022-12-10T02:24:18;55.05;;;20.15;;
76610;SDS011;65503;48.534;9.062;2022-12-10T02:29:27;58.47;;;21.90;;
76610;SDS011;65503;48.534;9.062;2022-12-10T02:31:59;56.47;;;21.10;;
76610;SDS011;65503;48.534;9.062;2022-12-10T02:34:29;51.35;;;18.50;;
76610;SDS011;65503;48.534;9.062;2022-12-10T02:37:00;53.42;;;20.10;;
76610;SDS011;65503;48.534;9.062;2022-12-10T02:39:33;67.10;;;23.77;;
76610;SDS011;65503;48.534;9.062;2022-12-10T02:42:04;61.20;;;21.83;;
76610;SDS011;65503;48.534;9.062;2022-12-10T02:44:34;48.95;;;15.68;;
76610;SDS011;65503;48.534;9.062;2022-12-10T02:47:03;45.83;;;17.00;;
76610;SDS011;65503;48.534;9.062;2022-12-10T02:49:31;53.55;;;20.35;;
76610;SDS011;65503;48.534;9.062;2022-12-10T02:51:59;51.88;;;16.98;;
76610;SDS011;65503;48.534;9.062;2022-12-10T02:57:08;41.80;;;15.02;;
76610;SDS011;65503;48.534;9.062;2022-12-10T03:00:12;60.55;;;23.95;;
76610;SDS011;65503;48.534;9.062;2022-12-10T03:09:08;54.35;;;20.08;;
76610;SDS011;65503;48.534;9.062;2022-12-10T03:11:39;48.67;;;17.63;;
76610;SDS011;65503;48.534;9.062;2022-12-10T03:14:18;63.17;;;23.48;;
76610;SDS011;65503;48.534;9.062;2022-12-10T03:16:53;45.97;;;18.17;;
76610;SDS011;65503;48.534;9.062;2022-12-10T03:19:24;47.63;;;16.50;;
76610;SDS011;65503;48.534;9.062;2022-12-10T03:21:57;60.45;;;21.08;;
76610;SDS011;65503;48.534;9.062;2022-12-10T03:24:26;49.28;;;17.55;;
76610;SDS011;65503;48.534;9.062;2022-12-10T03:26:53;53.53;;;19.75;;
76610;SDS011;65503;48.534;9.062;2022-12-10T03:29:26;68.50;;;26.02;;
76610;SDS011;65503;48.534;9.062;2022-12-10T03:31:58;61.30;;;22.73;;
76610;SDS011;65503;48.534;9.062;2022-12-10T03:36:52;40.63;;;15.63;;
76610;SDS011;65503;48.534;9.062;2022-12-10T03:39:20;41.30;;;16.77;;
76610;SDS011;65503;48.534;9.062;2022-12-10T03:41:46;34.38;;;13.43;;
76610;SDS011;65503;48.534;9.062;2022-12-10T03:44:13;36.20;;;13.43;;
76610;SDS011;65503;48.534;9.062;2022-12-10T03:46:53;45.53;;;16.50;;
76610;SDS011;65503;48.534;9.062;2022-12-10T03:49:19;50.97;;;19.80;;
76610;SDS011;65503;48.534;9.062;2022-12-10T03:51:46;52.67;;;20.38;;
76610;SDS011;65503;48.534;9.062;2022-12-10T03:54:12;43.03;;;16.02;;
76610;SDS011;65503;48.534;9.062;2022-12-10T03:56:39;40.13;;;15.40;;
76610;SDS011;65503;48.534;9.062;2022-12-10T03:59:06;37.58;;;14.57;;
76610;SDS011;65503;48.534;9.062;2022-12-10T04:01:33;41.45;;;17.85;;
76610;SDS011;65503;48.534;9.062;2022-12-10T04:03:59;35.65;;;15.07;;
76610;SDS011;65503;48.534;9.062;2022-12-10T04:06:26;37.35;;;13.20;;
76610;SDS011;65503;48.534;9.062;2022-12-10T04:08:52;31.33;;;12.98;;
76610;SDS011;65503;48.534;9.062;2022-12-10T04:11:24;32.35;;;13.45;;
76610;SDS011;65503;48.534;9.062;2022-12-10T04:13:51;60.78;;;23.88;;
76610;SDS011;65503;48.534;9.062;2022-12-10T04:16:37;36.80;;;14.63;;
76610;SDS011;65503;48.534;9.062;2022-12-10T04:19:08;37.28;;;13.15;;
76610;SDS011;65503;48.534;9.062;2022-12-10T04:21:37;39.05;;;15.10;;
76610;SDS011;65503;48.534;9.062;2022-12-10T04:24:25;40.28;;;15.85;;
76610;SDS011;65503;48.534;9.062;2022-12-10T04:27:33;44.63;;;16.90;;
76610;SDS011;65503;48.534;9.062;2022-12-10T04:30:01;41.67;;;15.88;;
76610;SDS011;65503;48.534;9.062;2022-12-10T04:32:29;36.67;;;15.68;;
76610;SDS011;65503;48.534;9.062;2022-12-10T04:34:56;36.63;;;13.55;;
76610;SDS011;65503;48.534;9.062;2022-12-10T04:37:23;35.80;;;14.60;;
76610;SDS011;65503;48.534;9.062;2022-12-10T04:39:50;48.65;;;18.45;;
76610;SDS011;65503;48.534;9.062;2022-12-10T04:42:17;42.88;;;17.35;;
76610;SDS011;65503;48.534;9.062;2022-12-10T04:44:45;35.55;;;15.00;;
76610;SDS011;65503;48.534;9.062;2022-12-10T04:47:11;40.05;;;16.42;;
76610;SDS011;65503;48.534;9.062;2022-12-10T04:49:39;48.40;;;18.63;;
76610;SDS011;65503;48.534;9.062;2022-12-10T04:52:06;42.60;;;17.92;;
76610;SDS011;65503;48.534;9.062;2022-12-10T04:54:34;55.38;;;22.80;;
76610;SDS011;65503;48.534;9.062;2022-12-10T04:57:04;44.33;;;18.40;;
76610;SDS011;65503;48.534;9.062;2022-12-10T04:59:31;49.13;;;19.77;;
76610;SDS011;65503;48.534;9.062;2022-12-10T05:01:57;48.60;;;18.63;;
76610;SDS011;65503;48.534;9.062;2022-12-10T05:04:24;42.97;;;15.30;;
76610;SDS011;65503;48.534;9.062;2022-12-10T05:06:50;42.00;;;17.27;;
76610;SDS011;65503;48.534;9.062;2022-12-10T05:09:17;47.33;;;17.27;;
76610;SDS011;65503;48.534;9.062;2022-12-10T05:11:44;38.55;;;13.77;;
76610;SDS011;65503;48.534;9.062;2022-12-10T05:14:11;45.60;;;17.75;;
76610;SDS011;65503;48.534;9.062;2022-12-10T05:16:38;41.67;;;17.60;;
76610;SDS011;65503;48.534;9.062;2022-12-10T05:19:05;40.92;;;17.73;;
76610;SDS011;65503;48.534;9.062;2022-12-10T05:21:32;50.03;;;20.50;;
76610;SDS011;65503;48.534;9.062;2022-12-10T05:24:17;49.42;;;19.65;;
76610;SDS011;65503;48.534;9.062;2022-12-10T05:26:45;46.95;;;19.02;;
76610;SDS011;65503;48.534;9.062;2022-12-10T05:29:12;53.72;;;20.73;;
76610;SDS011;65503;48.534;9.062;2022-12-10T05:31:39;36.83;;;14.45;;
76610;SDS011;65503;48.534;9.062;2022-12-10T05:34:05;43.22;;;16.42;;
76610;SDS011;65503;48.534;9.062;2022-12-10T05:36:34;44.03;;;18.65;;
76610;SDS011;65503;48.534;9.062;2022-12-10T05:39:01;49.35;;;19.48;;
76610;SDS011;65503;48.534;9.062;2022-12-10T05:41:28;35.63;;;13.77;;
76610;SDS011;65503;48.534;9.062;2022-12-10T05:43:58;46.22;;;20.13;;
76610;SDS011;65503;48.534;9.062;2022-12-10T05:46:25;45.83;;;18.98;;
76610;SDS011;65503;48.534;9.062;2022-12-10T05:48:54;43.63;;;17.63;;
76610;SDS011;65503;48.534;9.062;2022-12-10T05:51:21;44.10;;;18.88;;
76610;SDS011;65503;48.534;9.062;2022-12-10T05:53:50;57.95;;;23.35;;
76610;SDS011;65503;48.534;9.062;2022-12-10T05:56:18;50.05;;;19.50;;
76610;SDS011;65503;48.534;9.062;2022-12-10T05:58:49;46.08;;;19.00;;
76610;SDS011;65503;48.534;9.062;2022-12-10T06:01:17;40.60;;;17.42;;
76610;SDS011;65503;48.534;9.062;2022-12-10T06:03:48;43.85;;;16.92;;
76610;SDS011;65503;48.534;9.062;2022-12-10T06:06:20;40.05;;;17.42;;
76610;SDS011;65503;48.534;9.062;2022-12-10T06:08:50;45.20;;;18.52;;
76610;SDS011;65503;48.534;9.062;2022-12-10T06:11:17;43.08;;;17.90;;
76610;SDS011;65503;48.534;9.062;2022-12-10T06:13:44;45.70;;;19.13;;
76610;SDS011;65503;48.534;9.062;2022-12-10T06:16:11;42.35;;;16.92;;
76610;SDS011;65503;48.534;9.062;2022-12-10T06:18:42;46.40;;;18.13;;
76610;SDS011;65503;48.534;9.062;2022-12-10T06:21:10;45.15;;;18.52;;
76610;SDS011;65503;48.534;9.062;2022-12-10T06:23:38;41.47;;;16.73;;
76610;SDS011;65503;48.534;9.062;2022-12-10T06:26:13;37.55;;;15.77;;
76610;SDS011;65503;48.534;9.062;2022-12-10T06:28:44;46.00;;;17.33;;
76610;SDS011;65503;48.534;9.062;2022-12-10T06:31:11;47.08;;;18.50;;
76610;SDS011;65503;48.534;9.062;2022-12-10T06:33:38;49.90;;;20.42;;
76610;SDS011;65503;48.534;9.062;2022-12-10T06:36:06;38.67;;;17.08;;
76610;SDS011;65503;48.534;9.062;2022-12-10T06:38:34;38.28;;;15.52;;
76610;SDS011;65503;48.534;9.062;2022-12-10T06:41:03;45.83;;;18.00;;
76610;SDS011;65503;48.534;9.062;2022-12-10T06:43:31;36.05;;;14.68;;
76610;SDS011;65503;48.534;9.062;2022-12-10T06:45:57;46.67;;;19.00;;
76610;SDS011;65503;48.534;9.062;2022-12-10T06:48:24;34.50;;;15.50;;
76610;SDS011;65503;48.534;9.062;2022-12-10T06:50:51;38.58;;;16.10;;
76610;SDS011;65503;48.534;9.062;2022-12-10T06:53:17;36.80;;;15.63;;
76610;SDS011;65503;48.534;9.062;2022-12-10T06:55:44;48.35;;;20.05;;
76610;SDS011;65503;48.534;9.062;2022-12-10T06:58:11;49.72;;;20.65;;
76610;SDS011;65503;48.534;9.062;2022-12-10T07:00:37;45.67;;;18.00;;
76610;SDS011;65503;48.534;9.062;2022-12-10T07:03:04;37.78;;;16.83;;
76610;SDS011;65503;48.534;9.062;2022-12-10T07:05:30;34.72;;;16.15;;
76610;SDS011;65503;48.534;9.062;2022-12-10T07:07:57;49.40;;;21.13;;
76610;SDS011;65503;48.534;9.062;2022-12-10T07:10:23;39.25;;;15.95;;
76610;SDS011;65503;48.534;9.062;2022-12-10T07:12:50;44.97;;;20.55;;
76610;SDS011;65503;48.534;9.062;2022-12-10T07:15:17;47.40;;;19.30;;
76610;SDS011;65503;48.534;9.062;2022-12-10T07:17:43;50.65;;;21.55;;
76610;SDS011;65503;48.534;9.062;2022-12-10T07:20:10;46.65;;;21.25;;
76610;SDS011;65503;48.534;9.062;2022-12-10T07:22:38;51.25;;;21.67;;
76610;SDS011;65503;48.534;9.062;2022-12-10T07:25:05;46.15;;;20.10;;
76610;SDS011;65503;48.534;9.062;2022-12-10T07:27:32;39.70;;;18.48;;
76610;SDS011;65503;48.534;9.062;2022-12-10T07:29:58;46.00;;;19.25;;
76610;SDS011;65503;48.534;9.062;2022-12-10T07:32:26;35.60;;;15.68;;
76610;SDS011;65503;48.534;9.062;2022-12-10T07:34:53;43.33;;;19.52;;
76610;SDS011;65503;48.534;9.062;2022-12-10T07:37:20;45.20;;;19.35;;
76610;SDS011;65503;48.534;9.062;2022-12-10T07:39:46;40.33;;;18.00;;
76610;SDS011;65503;48.534;9.062;2022-12-10T07:42:13;40.22;;;18.23;;
76610;SDS011;65503;48.534;9.062;2022-12-10T07:44:39;39.72;;;18.58;;
76610;SDS011;65503;48.534;9.062;2022-12-10T07:47:12;42.17;;;19.02;;
76610;SDS011;65503;48.534;9.062;2022-12-10T07:49:39;40.58;;;19.48;;
76610;SDS011;65503;48.534;9.062;2022-12-10T07:52:05;43.58;;;18.55;;
76610;SDS011;65503;48.534;9.062;2022-12-10T07:54:32;45.22;;;20.05;;
76610;SDS011;65503;48.534;9.062;2022-12-10T07:56:59;37.80;;;16.70;;
76610;SDS011;65503;48.534;9.062;2022-12-10T07:59:26;38.03;;;17.92;;
76610;SDS011;65503;48.534;9.062;2022-12-10T08:01:52;36.53;;;17.60;;
76610;SDS011;65503;48.534;9.062;2022-12-10T08:04:19;42.17;;;18.90;;
76610;SDS011;65503;48.534;9.062;2022-12-10T08:06:45;39.90;;;17.02;;
76610;SDS011;65503;48.534;9.062;2022-12-10T08:09:12;36.45;;;16.77;;
76610;SDS011;65503;48.534;9.062;2022-12-10T08:11:38;36.15;;;17.17;;
76610;SDS011;65503;48.534;9.062;2022-12-10T08:14:05;38.78;;;17.45;;
76610;SDS011;65503;48.534;9.062;2022-12-10T08:16:31;33.90;;;17.70;;
76610;SDS011;65503;48.534;9.062;2022-12-10T08:18:59;37.72;;;17.30;;
76610;SDS011;65503;48.534;9.062;2022-12-10T08:21:28;35.58;;;17.30;;
76610;SDS011;65503;48.534;9.062;2022-12-10T08:23:56;35.30;;;15.52;;
76610;SDS011;65503;48.534;9.062;2022-12-10T08:26:25;32.92;;;16.77;;
76610;SDS011;65503;48.534;9.062;2022-12-10T08:28:54;37.13;;;17.42;;
76610;SDS011;65503;48.534;9.062;2022-12-10T08:31:21;29.90;;;13.98;;
76610;SDS011;65503;48.534;9.062;2022-12-10T08:33:50;32.65;;;15.60;;
76610;SDS011;65503;48.534;9.062;2022-12-10T08:36:17;36.42;;;17.02;;
76610;SDS011;65503;48.534;9.062;2022-12-10T08:38:45;34.97;;;16.92;;
76610;SDS011;65503;48.534;9.062;2022-12-10T08:41:15;32.95;;;14.80;;
76610;SDS011;65503;48.534;9.062;2022-12-10T08:43:46;32.65;;;15.38;;
76610;SDS011;65503;48.534;9.062;2022-12-10T08:46:14;31.95;;;14.38;;
76610;SDS011;65503;48.534;9.062;2022-12-10T08:48:41;37.00;;;15.65;;
76610;SDS011;65503;48.534;9.062;2022-12-10T08:51:09;32.95;;;14.68;;
76610;SDS011;65503;48.534;9.062;2022-12-10T08:53:39;27.98;;;13.90;;
76610;SDS011;65503;48.534;9.062;2022-12-10T08:56:05;28.55;;;12.43;;
76610;SDS011;65503;48.534;9.062;2022-12-10T08:58:33;36.00;;;16.90;;
76610;SDS011;65503;48.534;9.062;2022-12-10T09:01:00;31.02;;;14.55;;
76610;SDS011;65503;48.534;9.062;2022-12-10T09:03:32;37.88;;;15.85;;
76610;SDS011;65503;48.534;9.062;2022-12-10T09:06:01;38.63;;;16.02;;
76610;SDS011;65503;48.534;9.062;2022-12-10T09:08:31;33.55;;;14.98;;
76610;SDS011;65503;48.534;9.062;2022-12-10T09:11:03;31.88;;;15.18;;
76610;SDS011;65503;48.534;9.062;2022-12-10T09:13:31;29.13;;;12.90;;
76610;SDS011;65503;48.534;9.062;2022-12-10T09:15:57;28.65;;;13.55;;
76610;SDS011;65503;48.534;9.062;2022-12-10T09:18:24;28.50;;;13.00;;
76610;SDS011;65503;48.534;9.062;2022-12-10T09:20:50;27.13;;;13.63;;
76610;SDS011;65503;48.534;9.062;2022-12-10T09:23:17;31.77;;;15.07;;
76610;SDS011;65503;48.534;9.062;2022-12-10T09:25:43;26.60;;;13.23;;
76610;SDS011;65503;48.534;9.062;2022-12-10T09:28:10;30.83;;;15.88;;
76610;SDS011;65503;48.534;9.062;2022-12-10T09:30:36;22.70;;;10.20;;
76610;SDS011;65503;48.534;9.062;2022-12-10T09:33:03;29.27;;;13.93;;
76610;SDS011;65503;48.534;9.062;2022-12-10T09:35:29;30.05;;;14.38;;
76610;SDS011;65503;48.534;9.062;2022-12-10T09:37:56;24.20;;;11.02;;
76610;SDS011;65503;48.534;9.062;2022-12-10T09:40:32;32.00;;;16.23;;
76610;SDS011;65503;48.534;9.062;2022-12-10T09:43:10;24.88;;;12.00;;
76610;SDS011;65503;48.534;9.062;2022-12-10T09:46:13;30.88;;;14.68;;
76610;SDS011;65503;48.534;9.062;2022-12-10T09:49:01;33.20;;;15.10;;
76610;SDS011;65503;48.534;9.062;2022-12-10T09:51:35;32.15;;;14.85;;
76610;SDS011;65503;48.534;9.062;2022-12-10T09:54:25;24.33;;;11.38;;
76610;SDS011;65503;48.534;9.062;2022-12-10T09:56:51;26.48;;;12.98;;
76610;SDS011;65503;48.534;9.062;2022-12-10T09:59:24;28.30;;;14.02;;
76610;SDS011;65503;48.534;9.062;2022-12-10T10:04:58;30.52;;;14.57;;
76610;SDS011;65503;48.534;9.062;2022-12-10T10:07:34;20.70;;;11.45;;
76610;SDS011;65503;48.534;9.062;2022-12-10T10:10:10;29.17;;;14.05;;
76610;SDS011;65503;48.534;9.062;2022-12-10T10:13:11;29.58;;;13.70;;
76610;SDS011;65503;48.534;9.062;2022-12-10T10:15:45;22.55;;;10.70;;
76610;SDS011;65503;48.534;9.062;2022-12-10T10:21:04;24.90;;;11.45;;
76610;SDS011;65503;48.534;9.062;2022-12-10T10:23:33;26.95;;;13.50;;
76610;SDS011;65503;48.534;9.062;2022-12-10T10:26:00;27.75;;;13.70;;
76610;SDS011;65503;48.534;9.062;2022-12-10T10:28:27;23.17;;;12.25;;
76610;SDS011;65503;48.534;9.062;2022-12-10T10:30:54;28.70;;;13.73;;
76610;SDS011;65503;48.534;9.062;2022-12-10T10:33:20;23.60;;;12.13;;
76610;SDS011;65503;48.534;9.062;2022-12-10T10:35:48;26.55;;;13.18;;
76610;SDS011;65503;48.534;9.062;2022-12-10T10:38:28;25.58;;;14.07;;
76610;SDS011;65503;48.534;9.062;2022-12-10T10:40:56;25.58;;;12.82;;
76610;SDS011;65503;48.534;9.062;2022-12-10T10:43:26;27.88;;;13.95;;
76610;SDS011;65503;48.534;9.062;2022-12-10T10:46:03;25.30;;;12.10;;
76610;SDS011;65503;48.534;9.062;2022-12-10T10:48:32;28.75;;;14.85;;
76610;SDS011;65503;48.534;9.062;2022-12-10T10:51:06;31.73;;;16.13;;
76610;SDS011;65503;48.534;9.062;2022-12-10T10:53:50;23.85;;;12.27;;
76610;SDS011;65503;48.534;9.062;2022-12-10T10:58:50;27.80;;;12.85;;
76610;SDS011;65503;48.534;9.062;2022-12-10T11:01:18;26.13;;;12.80;;
76610;SDS011;65503;48.534;9.062;2022-12-10T11:03:49;20.70;;;10.15;;
76610;SDS011;65503;48.534;9.062;2022-12-10T11:06:25;32.35;;;14.95;;
76610;SDS011;65503;48.534;9.062;2022-12-10T11:09:23;28.75;;;14.10;;
76610;SDS011;65503;48.534;9.062;2022-12-10T11:11:56;25.98;;;12.40;;
76610;SDS011;65503;48.534;9.062;2022-12-10T11:14:29;31.52;;;13.45;;
76610;SDS011;65503;48.534;9.062;2022-12-10T11:19:41;24.35;;;12.73;;
76610;SDS011;65503;48.534;9.062;2022-12-10T11:22:16;25.30;;;12.65;;
76610;SDS011;65503;48.534;9.062;2022-12-10T11:24:46;22.55;;;10.00;;
76610;SDS011;65503;48.534;9.062;2022-12-10T11:30:02;27.75;;;12.77;;
76610;SDS011;65503;48.534;9.062;2022-12-10T11:41:27;27.10;;;13.05;;
76610;SDS011;65503;48.534;9.062;2022-12-10T11:44:13;27.30;;;13.27;;
76610;SDS011;65503;48.534;9.062;2022-12-10T11:49:34;25.77;;;11.98;;
76610;SDS011;65503;48.534;9.062;2022-12-10T12:00:37;22.27;;;11.05;;
76610;SDS011;65503;48.534;9.062;2022-12-10T12:03:21;20.00;;;10.25;;
76610;SDS011;65503;48.534;9.062;2022-12-10T12:05:56;22.35;;;10.88;;
76610;SDS011;65503;48.534;9.062;2022-12-10T12:14:22;23.45;;;11.82;;
76610;SDS011;65503;48.534;9.062;2022-12-10T12:19:39;23.55;;;11.82;;
76610;SDS011;65503;48.534;9.062;2022-12-10T12:22:23;25.75;;;12.27;;
76610;SDS011;65503;48.534;9.062;2022-12-10T12:27:42;22.52;;;10.88;;
76610;SDS011;65503;48.534;9.062;2022-12-10T12:35:43;20.52;;;10.35;;
76610;SDS011;65503;48.534;9.062;2022-12-10T12:40:42;23.63;;;10.90;;
76610;SDS011;65503;48.534;9.062;2022-12-10T12:43:15;17.48;;;8.45;;
76610;SDS011;65503;48.534;9.062;2022-12-10T12:45:47;21.60;;;10.10;;
76610;SDS011;65503;48.534;9.062;2022-12-10T12:51:12;19.95;;;9.57;;
76610;SDS011;65503;48.534;9.062;2022-12-10T12:53:45;21.30;;;10.65;;
76610;SDS011;65503;48.534;9.062;2022-12-10T13:04:38;25.33;;;11.20;;
76610;SDS011;65503;48.534;9.062;2022-12-10T13:07:09;20.52;;;10.43;;
76610;SDS011;65503;48.534;9.062;2022-12-10T13:12:32;21.40;;;9.95;;
76610;SDS011;65503;48.534;9.062;2022-12-10T13:15:32;19.90;;;10.52;;
76610;SDS011;65503;48.534;9.062;2022-12-10T13:20:51;23.60;;;11.20;;
76610;SDS011;65503;48.534;9.062;2022-12-10T13:23:54;18.92;;;9.43;;
76610;SDS011;65503;48.534;9.062;2022-12-10T13:33:17;25.10;;;11.98;;
76610;SDS011;65503;48.534;9.062;2022-12-10T13:35:55;25.20;;;13.00;;
76610;SDS011;65503;48.534;9.062;2022-12-10T13:38:38;25.23;;;12.90;;
76610;SDS011;65503;48.534;9.062;2022-12-10T13:41:06;25.73;;;13.55;;
76610;SDS011;65503;48.534;9.062;2022-12-10T13:43:53;28.30;;;11.77;;
76610;SDS011;65503;48.534;9.062;2022-12-10T13:46:56;25.48;;;12.25;;
76610;SDS011;65503;48.534;9.062;2022-12-10T13:49:26;22.00;;;11.23;;
76610;SDS011;65503;48.534;9.062;2022-12-10T13:57:20;23.08;;;11.50;;
76610;SDS011;65503;48.534;9.062;2022-12-10T14:08:23;25.75;;;13.15;;
76610;SDS011;65503;48.534;9.062;2022-12-10T14:10:54;24.13;;;11.82;;
76610;SDS011;65503;48.534;9.062;2022-12-10T14:13:31;22.75;;;11.40;;
76610;SDS011;65503;48.534;9.062;2022-12-10T14:16:09;22.30;;;11.02;;
76610;SDS011;65503;48.534;9.062;2022-12-10T14:18:38;24.42;;;11.77;;
76610;SDS011;65503;48.534;9.062;2022-12-10T14:21:10;24.40;;;11.20;;
76610;SDS011;65503;48.534;9.062;2022-12-10T14:23:45;23.08;;;10.93;;
76610;SDS011;65503;48.534;9.062;2022-12-10T14:26:31;25.10;;;12.05;;
76610;SDS011;65503;48.534;9.062;2022-12-10T14:31:54;26.05;;;13.05;;
76610;SDS011;65503;48.534;9.062;2022-12-10T14:34:26;23.40;;;11.35;;
76610;SDS011;65503;48.534;9.062;2022-12-10T14:36:55;24.17;;;11.68;;
76610;SDS011;65503;48.534;9.062;2022-12-10T14:39:27;25.75;;;10.73;;
76610;SDS011;65503;48.534;9.062;2022-12-10T14:41:57;25.55;;;11.63;;
76610;SDS011;65503;48.534;9.062;2022-12-10T14:44:29;27.25;;;11.55;;
76610;SDS011;65503;48.534;9.062;2022-12-10T14:47:31;23.63;;;11.43;;
76610;SDS011;65503;48.534;9.062;2022-12-10T14:49:51;22.80;;;11.02;;
76610;SDS011;65503;48.534;9.062;2022-12-10T14:52:21;24.23;;;10.68;;
76610;SDS011;65503;48.534;9.062;2022-12-10T14:54:50;22.17;;;10.38;;
76610;SDS011;65503;48.534;9.062;2022-12-10T14:57:18;25.35;;;11.10;;
76610;SDS011;65503;48.534;9.062;2022-12-10T14:59:59;36.55;;;14.07;;
76610;SDS011;65503;48.534;9.062;2022-12-10T15:02:36;22.92;;;11.93;;
76610;SDS011;65503;48.534;9.062;2022-12-10T15:05:12;28.10;;;12.20;;
76610;SDS011;65503;48.534;9.062;2022-12-10T15:07:42;22.92;;;10.85;;
76610;SDS011;65503;48.534;9.062;2022-12-10T15:10:19;27.52;;;12.13;;
76610;SDS011;65503;48.534;9.062;2022-12-10T15:12:52;26.73;;;11.80;;
76610;SDS011;65503;48.534;9.062;2022-12-10T15:15:31;23.30;;;11.80;;
76610;SDS011;65503;48.534;9.062;2022-12-10T15:28:49;24.88;;;10.43;;
76610;SDS011;65503;48.534;9.062;2022-12-10T15:31:43;23.73;;;11.00;;
76610;SDS011;65503;48.534;9.062;2022-12-10T15:34:11;26.63;;;12.38;;
76610;SDS011;65503;48.534;9.062;2022-12-10T15:39:27;25.92;;;11.77;;
76610;SDS011;65503;48.534;9.062;2022-12-10T15:41:57;27.08;;;13.02;;
76610;SDS011;65503;48.534;9.062;2022-12-10T15:49:34;27.77;;;13.73;;
76610;SDS011;65503;48.534;9.062;2022-12-10T15:52:01;28.98;;;12.30;;
76610;SDS011;65503;48.534;9.062;2022-12-10T15:54:32;29.25;;;13.63;;
76610;SDS011;65503;48.534;9.062;2022-12-10T15:56:59;28.10;;;13.80;;
76610;SDS011;65503;48.534;9.062;2022-12-10T15:59:26;24.67;;;11.38;;
76610;SDS011;65503;48.534;9.062;2022-12-10T16:01:52;24.77;;;11.20;;
76610;SDS011;65503;48.534;9.062;2022-12-10T16:04:20;25.58;;;12.45;;
76610;SDS011;65503;48.534;9.062;2022-12-10T16:06:48;25.80;;;11.55;;
76610;SDS011;65503;48.534;9.062;2022-12-10T16:09:14;24.92;;;11.82;;
76610;SDS011;65503;48.534;9.062;2022-12-10T16:11:42;23.92;;;11.43;;
76610;SDS011;65503;48.534;9.062;2022-12-10T16:14:09;27.60;;;12.27;;
76610;SDS011;65503;48.534;9.062;2022-12-10T16:16:39;25.50;;;10.60;;
76610;SDS011;65503;48.534;9.062;2022-12-10T16:19:10;25.60;;;11.98;;
76610;SDS011;65503;48.534;9.062;2022-12-10T16:21:38;30.55;;;13.52;;
76610;SDS011;65503;48.534;9.062;2022-12-10T16:24:07;26.30;;;13.13;;
76610;SDS011;65503;48.534;9.062;2022-12-10T16:26:33;27.88;;;12.60;;
76610;SDS011;65503;48.534;9.062;2022-12-10T16:29:03;28.23;;;13.13;;
76610;SDS011;65503;48.534;9.062;2022-12-10T16:31:33;25.58;;;12.18;;
76610;SDS011;65503;48.534;9.062;2022-12-10T16:34:00;24.98;;;12.55;;
76610;SDS011;65503;48.534;9.062;2022-12-10T16:36:26;25.33;;;11.70;;
76610;SDS011;65503;48.534;9.062;2022-12-10T16:38:53;26.90;;;13.45;;
76610;SDS011;65503;48.534;9.062;2022-12-10T16:41:23;26.23;;;12.25;;
76610;SDS011;65503;48.534;9.062;2022-12-10T16:43:53;29.00;;;12.40;;
76610;SDS011;65503;48.534;9.062;2022-12-10T16:46:24;30.00;;;13.15;;
76610;SDS011;65503;48.534;9.062;2022-12-10T16:48:58;25.40;;;12.43;;
76610;SDS011;65503;48.534;9.062;2022-12-10T16:51:28;27.40;;;12.02;;
76610;SDS011;65503;48.534;9.062;2022-12-10T16:53:56;27.00;;;13.55;;
76610;SDS011;65503;48.534;9.062;2022-12-10T17:26:08;24.45;;;11.27;;
76610;SDS011;65503;48.534;9.062;2022-12-10T17:28:47;24.25;;;11.60;;
76610;SDS011;65503;48.534;9.062;2022-12-10T17:31:22;20.65;;;10.13;;
76610;SDS011;65503;48.534;9.062;2022-12-10T17:33:52;22.67;;;10.45;;
76610;SDS011;65503;48.534;9.062;2022-12-10T17:36:18;22.48;;;10.20;;
76610;SDS011;65503;48.534;9.062;2022-12-10T17:38:45;23.63;;;11.55;;
76610;SDS011;65503;48.534;9.062;2022-12-10T17:41:16;21.67;;;10.30;;